KARR/ARR METAR and TAF weather

Enter ICAO airport designator
Station Type Date Time Source
KARR METAR 2020/07/11 17:04 UTC NOAA

KARR 111704Z 28007KT 6SM RA BR FEW070 BKN090 OVC110 20/19 A2997 RMK AO2 LTG DSNT E-SW P0002 T02000189


Station Type Date Time Source
KARR Decoded METAR 2020/07/11 17:04 UTC NOAA

CHICAGO AURORA MUNICIPAL, IL, United States (KARR) 41-46N 088-28W 215M
Jul 11, 2020 - 01:04 PM EDT / 2020.07.11 1704 UTC
Wind: from the W (280 degrees) at 8 MPH (7 KT):0
Visibility: 6 mile(s):0
Sky conditions: overcast
Weather: rain; mist; Lightning observed
Precipitation last hour: 0.02 inches
Temperature: 68.0 F (20.0 C)
Dew Point: 66.0 F (18.9 C)
Relative Humidity: 93%
Pressure (altimeter): 29.97 in. Hg (1014 hPa)
ob: KARR 111704Z 28007KT 6SM RA BR FEW070 BKN090 OVC110 20/19 A2997 RMK AO2 LTG DSNT E-SW P0002 T02000189
cycle: 17

Station Type Date Time Source
KARR TAF UTC NOAA

Error!

Example: see airport list